createdAt,value
2023-09-11T00:01:43.602Z,98.80
2023-09-11T00:04:12.947Z,98.90
2023-09-11T00:06:40.952Z,98.90
2023-09-11T00:09:08.916Z,98.90
2023-09-11T00:11:36.894Z,99.00
2023-09-11T00:14:04.886Z,99.00
2023-09-11T00:16:33.282Z,99.00
2023-09-11T00:19:01.258Z,99.00
2023-09-11T00:21:30.478Z,99.00
2023-09-11T00:23:58.390Z,99.10
2023-09-11T00:26:26.380Z,99.10
2023-09-11T00:28:54.287Z,99.10
2023-09-11T00:31:22.289Z,99.30
2023-09-11T00:33:50.240Z,99.50
2023-09-11T00:36:18.313Z,99.70
2023-09-11T00:38:51.008Z,99.90
2023-09-11T00:41:19.146Z,99.90
2023-09-11T00:43:47.211Z,99.90
2023-09-11T00:46:15.146Z,99.90
2023-09-11T00:48:43.593Z,99.90
2023-09-11T00:51:12.014Z,99.90
2023-09-11T00:53:40.066Z,99.90
2023-09-11T00:56:09.408Z,99.90
2023-09-11T00:58:38.193Z,99.90
2023-09-11T01:01:07.300Z,99.90
2023-09-11T01:03:35.457Z,99.90
2023-09-11T01:06:04.362Z,99.90
2023-09-11T01:08:33.537Z,99.90
2023-09-11T01:11:01.542Z,99.90
2023-09-11T01:13:30.992Z,99.90
2023-09-11T01:16:04.642Z,99.90
2023-09-11T01:18:40.272Z,99.90
2023-09-11T01:21:29.547Z,99.90
2023-09-11T01:24:25.117Z,99.90
2023-09-11T01:27:14.338Z,99.90
2023-09-11T01:29:44.943Z,99.90
2023-09-11T01:32:16.282Z,99.90
2023-09-11T01:34:44.166Z,99.90
2023-09-11T01:37:12.073Z,99.90
2023-09-11T01:39:40.046Z,99.90
2023-09-11T01:42:11.175Z,99.90
2023-09-11T01:44:45.106Z,99.90
2023-09-11T01:47:15.485Z,99.90
2023-09-11T01:49:45.233Z,99.90
2023-09-11T01:52:13.707Z,99.90
2023-09-11T01:54:41.709Z,99.90
2023-09-11T01:57:10.636Z,99.90
2023-09-11T01:59:38.619Z,99.90
2023-09-11T02:02:08.201Z,99.90
2023-09-11T02:04:36.107Z,99.90
2023-09-11T02:07:03.998Z,99.90
2023-09-11T02:09:31.923Z,99.90
2023-09-11T02:11:59.824Z,99.90
2023-09-11T02:14:29.473Z,99.90
2023-09-11T02:17:04.012Z,99.90
2023-09-11T02:19:34.264Z,99.90
2023-09-11T02:22:02.724Z,99.90
2023-09-11T02:24:30.616Z,99.90
2023-09-11T02:26:58.697Z,99.90
2023-09-11T02:29:26.667Z,99.90
2023-09-11T02:31:54.590Z,99.90
2023-09-11T02:34:22.496Z,99.90
2023-09-11T02:36:51.688Z,99.90
2023-09-11T02:39:19.577Z,99.90
2023-09-11T02:41:47.473Z,99.90
2023-09-11T02:44:15.345Z,99.90
2023-09-11T02:46:44.556Z,99.90
2023-09-11T02:49:12.571Z,99.90
2023-09-11T02:51:40.511Z,99.90
2023-09-11T02:54:09.760Z,99.90
2023-09-11T02:56:39.414Z,99.90
2023-09-11T02:59:07.738Z,99.90
2023-09-11T03:01:36.885Z,99.90
2023-09-11T03:04:05.338Z,99.90
2023-09-11T03:06:33.264Z,99.90
2023-09-11T03:09:01.316Z,99.90
2023-09-11T03:11:30.564Z,99.90
2023-09-11T03:13:58.478Z,99.90
2023-09-11T03:16:26.431Z,99.90
2023-09-11T03:18:54.832Z,99.90
2023-09-11T03:21:22.818Z,99.90
2023-09-11T03:23:50.752Z,99.90
2023-09-11T03:26:19.583Z,99.90
2023-09-11T03:28:51.196Z,99.90
2023-09-11T03:31:19.792Z,99.90
2023-09-11T03:33:48.435Z,99.90
2023-09-11T03:36:18.053Z,99.90
2023-09-11T03:38:46.619Z,99.90
2023-09-11T03:41:14.775Z,99.90
2023-09-11T03:43:42.651Z,99.90
2023-09-11T03:46:13.563Z,99.90
2023-09-11T03:48:42.059Z,99.90
2023-09-11T03:51:10.458Z,99.90
2023-09-11T03:53:44.049Z,99.90
2023-09-11T03:56:13.088Z,99.90
2023-09-11T03:58:41.267Z,99.90
2023-09-11T04:01:10.969Z,99.90
2023-09-11T04:03:39.037Z,99.90
2023-09-11T04:06:07.178Z,99.90
2023-09-11T04:08:35.172Z,99.90
2023-09-11T04:11:03.193Z,99.90
2023-09-11T04:13:31.100Z,99.90
2023-09-11T04:15:59.041Z,99.90
2023-09-11T04:18:28.451Z,99.90
2023-09-11T04:21:02.486Z,99.90
2023-09-11T04:23:30.578Z,99.90
2023-09-11T04:25:58.529Z,99.90
2023-09-11T04:28:26.520Z,99.90
2023-09-11T04:30:54.718Z,99.90
2023-09-11T04:33:22.812Z,99.90
2023-09-11T04:35:52.826Z,99.90
2023-09-11T04:38:20.870Z,99.90
2023-09-11T04:40:49.179Z,99.90
2023-09-11T04:43:17.204Z,99.90
2023-09-11T04:45:45.235Z,99.90
2023-09-11T04:48:13.295Z,99.90
2023-09-11T04:50:41.466Z,99.90
2023-09-11T04:53:10.852Z,99.90
2023-09-11T04:55:38.747Z,99.90
2023-09-11T04:58:08.704Z,99.90
2023-09-11T05:00:36.692Z,99.90
2023-09-11T05:03:04.939Z,99.90
2023-09-11T05:05:39.662Z,99.90
2023-09-11T05:08:08.077Z,99.90
2023-09-11T05:10:42.187Z,99.90
2023-09-11T05:13:10.178Z,99.90
2023-09-11T05:15:38.122Z,99.90
2023-09-11T05:18:06.772Z,99.90
2023-09-11T05:20:34.935Z,99.90
2023-09-11T05:23:02.946Z,99.90
2023-09-11T05:25:30.877Z,99.90
2023-09-11T05:28:00.221Z,99.90
2023-09-11T05:30:28.244Z,99.90
2023-09-11T05:32:56.210Z,99.90
2023-09-11T05:35:24.284Z,99.90
2023-09-11T05:37:52.223Z,99.90
2023-09-11T05:40:20.295Z,99.90
2023-09-11T05:42:48.863Z,99.90
2023-09-11T05:45:18.378Z,99.90
2023-09-11T05:47:46.487Z,99.90
2023-09-11T05:50:15.813Z,99.90
2023-09-11T05:52:43.798Z,99.90
2023-09-11T05:55:11.805Z,99.90
2023-09-11T05:57:39.776Z,99.90
2023-09-11T06:00:13.569Z,99.90
2023-09-11T06:02:46.206Z,99.90
2023-09-11T06:05:14.924Z,99.90
2023-09-11T06:07:43.045Z,99.90
2023-09-11T06:10:12.430Z,99.90
2023-09-11T06:12:40.347Z,99.90
2023-09-11T06:15:09.233Z,99.90
2023-09-11T06:17:44.998Z,99.90
2023-09-11T06:20:17.088Z,99.90
2023-09-11T06:22:45.671Z,99.90
2023-09-11T06:25:13.908Z,99.90
2023-09-11T06:27:42.010Z,99.90
2023-09-11T06:30:10.957Z,99.90
2023-09-11T06:32:39.292Z,99.90
2023-09-11T06:35:08.356Z,99.90
2023-09-11T06:37:37.906Z,99.90
2023-09-11T06:40:08.699Z,99.90
2023-09-11T06:42:37.473Z,99.90
2023-09-11T06:45:06.049Z,99.90
2023-09-11T06:47:34.762Z,99.90
2023-09-11T06:50:03.112Z,99.90
2023-09-11T06:52:31.178Z,99.90
2023-09-11T06:55:00.589Z,99.90
2023-09-11T06:57:28.608Z,99.90
2023-09-11T06:59:56.809Z,99.90
2023-09-11T07:02:24.795Z,99.90
2023-09-11T07:04:52.764Z,99.90
2023-09-11T07:07:23.587Z,99.90
2023-09-11T07:09:52.418Z,99.90
2023-09-11T07:12:23.934Z,99.90
2023-09-11T07:14:52.034Z,99.90
2023-09-11T07:17:19.957Z,99.90
2023-09-11T07:19:49.188Z,99.90
2023-09-11T07:22:17.229Z,99.90
2023-09-11T07:24:45.240Z,99.90
2023-09-11T07:27:13.390Z,99.90
2023-09-11T07:29:42.743Z,99.90
2023-09-11T07:32:11.492Z,99.90
2023-09-11T07:34:39.516Z,99.90
2023-09-11T07:37:07.555Z,99.90
2023-09-11T07:39:35.639Z,99.90
2023-09-11T07:42:03.647Z,99.90
2023-09-11T07:44:31.971Z,99.90
2023-09-11T07:47:01.420Z,99.90
2023-09-11T07:49:29.508Z,99.90
2023-09-11T07:51:57.666Z,99.90
2023-09-11T07:54:27.534Z,99.90
2023-09-11T07:56:55.584Z,99.90
2023-09-11T07:59:23.612Z,99.90
2023-09-11T08:01:51.515Z,99.90
2023-09-11T08:04:21.072Z,99.90
2023-09-11T08:06:51.612Z,99.90
2023-09-11T08:09:19.653Z,99.90
2023-09-11T08:11:47.929Z,99.90
2023-09-11T08:14:15.997Z,99.90
2023-09-11T08:16:44.594Z,99.90
2023-09-11T08:19:13.528Z,99.90
2023-09-11T08:21:42.991Z,99.90
2023-09-11T08:24:11.015Z,99.90
2023-09-11T08:26:39.763Z,99.90
2023-09-11T08:29:12.007Z,99.90
2023-09-11T08:31:39.996Z,99.90
2023-09-11T08:34:08.083Z,99.90
2023-09-11T08:36:36.299Z,99.90
2023-09-11T08:39:05.759Z,99.90
2023-09-11T08:41:34.785Z,99.90
2023-09-11T08:44:02.868Z,99.90
2023-09-11T08:46:34.433Z,99.90
2023-09-11T08:49:04.668Z,99.90
2023-09-11T08:51:36.487Z,99.90
2023-09-11T08:54:10.807Z,99.90
2023-09-11T08:56:41.582Z,99.90
2023-09-11T08:59:12.675Z,99.90
2023-09-11T09:01:41.051Z,99.90
2023-09-11T09:04:10.282Z,99.90
2023-09-11T09:06:39.390Z,99.90
2023-09-11T09:09:08.971Z,99.90
2023-09-11T09:11:38.517Z,99.90
2023-09-11T09:14:08.833Z,99.90
2023-09-11T09:16:36.999Z,99.90
2023-09-11T09:19:05.210Z,99.90
2023-09-11T09:21:33.277Z,99.90
2023-09-11T09:24:13.629Z,99.90
2023-09-11T09:26:58.330Z,99.90
2023-09-11T09:29:26.562Z,99.90
2023-09-11T09:31:54.740Z,99.90
2023-09-11T09:34:22.945Z,99.90
2023-09-11T09:36:51.463Z,99.90
2023-09-11T09:39:20.999Z,99.90
2023-09-11T09:41:55.704Z,99.90
2023-09-11T09:44:30.921Z,99.90
2023-09-11T09:46:59.135Z,99.90
2023-09-11T09:49:27.249Z,99.90
2023-09-11T09:51:55.232Z,99.90
2023-09-11T09:54:43.173Z,99.90
2023-09-11T09:57:12.902Z,99.90
2023-09-11T09:59:41.066Z,99.90
2023-09-11T10:02:12.974Z,99.90
2023-09-11T10:04:41.563Z,99.90
2023-09-11T10:07:09.765Z,99.90
2023-09-11T10:09:39.491Z,99.90
2023-09-11T10:12:12.899Z,99.90
2023-09-11T10:14:41.590Z,99.90
2023-09-11T10:17:09.901Z,99.90
2023-09-11T10:19:39.974Z,99.90
2023-09-11T10:22:07.962Z,99.90
2023-09-11T10:24:35.873Z,99.90
2023-09-11T10:27:05.970Z,99.90
2023-09-11T10:29:50.975Z,99.90
2023-09-11T10:32:24.460Z,99.90
2023-09-11T10:34:54.013Z,99.90
2023-09-11T10:37:23.059Z,99.90
2023-09-11T10:39:53.853Z,99.90
2023-09-11T10:42:23.169Z,99.90
2023-09-11T10:44:54.940Z,99.90
2023-09-11T10:47:23.589Z,99.90
2023-09-11T10:49:52.059Z,99.90
2023-09-11T10:52:21.915Z,99.90
2023-09-11T10:54:50.150Z,99.90
2023-09-11T10:57:18.540Z,99.90
2023-09-11T10:59:48.473Z,99.90
2023-09-11T11:02:16.697Z,99.90
2023-09-11T11:04:45.117Z,99.90
2023-09-11T11:07:14.598Z,99.90
2023-09-11T11:09:43.118Z,99.90
2023-09-11T11:12:14.572Z,99.90
2023-09-11T11:14:42.952Z,99.90
2023-09-11T11:17:12.702Z,99.90
2023-09-11T11:19:42.512Z,99.90
2023-09-11T11:22:29.878Z,99.90
2023-09-11T11:24:58.839Z,99.80
2023-09-11T11:27:26.912Z,99.30
2023-09-11T11:29:55.872Z,98.90
2023-09-11T11:32:25.603Z,99.00
2023-09-11T11:34:53.821Z,99.00
2023-09-11T11:37:22.985Z,98.00
2023-09-11T11:39:51.887Z,96.70
2023-09-11T11:42:20.928Z,96.60
2023-09-11T11:44:50.306Z,96.80
2023-09-11T11:47:18.894Z,96.00
2023-09-11T11:49:50.697Z,95.70
2023-09-11T11:52:18.885Z,94.80
2023-09-11T11:54:47.101Z,94.70
2023-09-11T11:57:15.097Z,94.40
2023-09-11T11:59:43.557Z,94.70
2023-09-11T12:02:21.058Z,95.00
2023-09-11T12:04:55.818Z,94.30
2023-09-11T12:07:24.756Z,94.50
2023-09-11T12:09:52.923Z,94.70
2023-09-11T12:12:21.539Z,94.70
2023-09-11T12:14:54.496Z,93.90
2023-09-11T12:17:22.654Z,94.40
2023-09-11T12:19:52.076Z,94.30
2023-09-11T12:22:21.212Z,94.00
2023-09-11T12:24:50.503Z,94.00
2023-09-11T12:27:18.530Z,93.40
2023-09-11T12:29:49.745Z,93.30
2023-09-11T12:32:17.711Z,93.50
2023-09-11T12:34:46.109Z,93.40
2023-09-11T12:37:15.752Z,93.20
2023-09-11T12:39:43.862Z,93.30
2023-09-11T12:42:11.976Z,92.60
2023-09-11T12:44:40.095Z,92.80
2023-09-11T12:47:08.378Z,93.10
2023-09-11T12:49:36.680Z,92.80
2023-09-11T12:52:04.944Z,92.80
2023-09-11T12:54:34.427Z,92.60
2023-09-11T12:57:02.979Z,93.00
2023-09-11T12:59:33.796Z,93.00
2023-09-11T13:02:01.568Z,92.70
2023-09-11T13:04:29.637Z,92.50
2023-09-11T13:06:57.577Z,92.90
2023-09-11T13:09:26.304Z,92.70
2023-09-11T13:11:55.643Z,92.20
2023-09-11T13:14:23.618Z,91.50
2023-09-11T13:16:51.694Z,92.40
2023-09-11T13:19:19.864Z,91.70
2023-09-11T13:21:48.648Z,92.30
2023-09-11T13:24:16.721Z,91.50
2023-09-11T13:26:44.903Z,91.70
2023-09-11T13:29:14.828Z,91.90
2023-09-11T13:31:43.167Z,91.40
2023-09-11T13:34:11.922Z,91.00
2023-09-11T13:36:40.055Z,90.70
2023-09-11T13:39:08.075Z,90.40
2023-09-11T13:41:36.861Z,90.70
2023-09-11T13:44:04.927Z,90.70
2023-09-11T13:46:34.317Z,90.10
2023-09-11T13:49:02.296Z,90.20
2023-09-11T13:51:30.319Z,90.50
2023-09-11T13:53:58.325Z,91.20
2023-09-11T13:56:26.407Z,90.20
2023-09-11T13:58:54.375Z,90.00
2023-09-11T14:01:23.007Z,90.10
2023-09-11T14:03:52.462Z,89.80
2023-09-11T14:06:20.539Z,89.60
2023-09-11T14:08:48.906Z,89.90
2023-09-11T14:11:16.891Z,89.40
2023-09-11T14:13:44.776Z,89.70
2023-09-11T14:16:12.841Z,88.60
2023-09-11T14:18:41.326Z,88.10
2023-09-11T14:21:10.965Z,88.80
2023-09-11T14:23:39.003Z,89.00
2023-09-11T14:26:07.234Z,88.30
2023-09-11T14:28:35.226Z,87.90
2023-09-11T14:31:03.318Z,88.30
2023-09-11T14:33:31.398Z,88.10
2023-09-11T14:35:59.534Z,87.50
2023-09-11T14:38:28.889Z,87.60
2023-09-11T14:40:57.151Z,87.80
2023-09-11T14:43:25.085Z,87.10
2023-09-11T14:45:53.091Z,87.10
2023-09-11T14:48:21.231Z,87.50
2023-09-11T14:50:50.415Z,88.50
2023-09-11T14:53:19.134Z,87.70
2023-09-11T14:55:49.462Z,86.60
2023-09-11T14:58:17.601Z,86.70
2023-09-11T15:00:45.524Z,85.80
2023-09-11T15:03:13.669Z,86.20
2023-09-11T15:05:41.808Z,85.90
2023-09-11T15:08:11.199Z,86.20
2023-09-11T15:10:43.541Z,85.30
2023-09-11T15:13:13.012Z,84.70
2023-09-11T15:15:43.641Z,84.50
2023-09-11T15:18:13.400Z,85.30
2023-09-11T15:20:41.641Z,87.30
2023-09-11T15:23:09.685Z,86.30
2023-09-11T15:25:37.622Z,85.50
2023-09-11T15:28:05.937Z,85.00
2023-09-11T15:30:38.725Z,85.50
2023-09-11T15:33:06.980Z,84.60
2023-09-11T15:35:35.198Z,84.50
2023-09-11T15:38:03.270Z,84.60
2023-09-11T15:40:31.202Z,83.90
2023-09-11T15:42:59.111Z,83.90
2023-09-11T15:45:27.259Z,84.10
2023-09-11T15:47:59.248Z,83.30
2023-09-11T15:50:27.688Z,83.40
2023-09-11T15:52:55.647Z,83.80
2023-09-11T15:55:23.707Z,83.50
2023-09-11T15:57:51.716Z,84.80
2023-09-11T16:00:19.900Z,84.80
2023-09-11T16:02:48.644Z,84.50
2023-09-11T16:05:18.200Z,84.50
2023-09-11T16:07:46.195Z,84.70
2023-09-11T16:10:14.245Z,84.70
2023-09-11T16:12:42.187Z,85.30
2023-09-11T16:15:12.960Z,85.20
2023-09-11T16:17:41.813Z,85.30
2023-09-11T16:20:10.792Z,85.80
2023-09-11T16:22:40.201Z,86.40
2023-09-11T16:25:08.612Z,86.40
2023-09-11T16:27:36.944Z,86.60
2023-09-11T16:30:05.551Z,86.40
2023-09-11T16:32:33.876Z,87.00
2023-09-11T16:35:01.845Z,86.90
2023-09-11T16:37:29.839Z,87.40
2023-09-11T16:39:59.222Z,87.70
2023-09-11T16:42:27.571Z,88.10
2023-09-11T16:44:55.759Z,88.40
2023-09-11T16:47:23.823Z,88.60
2023-09-11T16:49:51.754Z,89.10
2023-09-11T16:52:19.720Z,89.50
2023-09-11T16:54:48.350Z,89.90
2023-09-11T16:57:17.798Z,89.90
2023-09-11T16:59:45.862Z,90.10
2023-09-11T17:02:13.903Z,90.20
2023-09-11T17:04:41.876Z,90.30
2023-09-11T17:07:10.171Z,90.40
2023-09-11T17:09:38.258Z,90.50
2023-09-11T17:12:06.802Z,90.70
2023-09-11T17:14:36.210Z,91.00
2023-09-11T17:17:04.818Z,91.20
2023-09-11T17:19:33.429Z,91.50
2023-09-11T17:22:01.362Z,91.90
2023-09-11T17:24:29.454Z,92.10
2023-09-11T17:26:57.464Z,92.30
2023-09-11T17:29:28.511Z,92.50
2023-09-11T17:31:57.989Z,92.60
2023-09-11T17:34:26.038Z,92.80
2023-09-11T17:36:53.981Z,93.00
2023-09-11T17:39:24.792Z,93.20
2023-09-11T17:41:52.905Z,93.30
2023-09-11T17:44:20.846Z,93.50
2023-09-11T17:46:49.222Z,93.70
2023-09-11T17:49:18.523Z,93.90
2023-09-11T17:51:46.943Z,94.20
2023-09-11T17:54:15.297Z,94.30
2023-09-11T17:56:43.383Z,94.40
2023-09-11T17:59:11.403Z,94.50
2023-09-11T18:01:39.786Z,94.70
2023-09-11T18:04:09.581Z,94.80
2023-09-11T18:06:41.108Z,94.90
2023-09-11T18:09:09.898Z,95.00
2023-09-11T18:11:37.897Z,95.00
2023-09-11T18:14:06.109Z,95.00
2023-09-11T18:16:34.141Z,94.90
2023-09-11T18:19:02.279Z,95.00
2023-09-11T18:21:30.231Z,95.20
2023-09-11T18:23:59.637Z,95.20
2023-09-11T18:26:27.708Z,95.00
2023-09-11T18:28:55.753Z,95.30
2023-09-11T18:31:23.719Z,95.20
2023-09-11T18:33:51.880Z,95.30
2023-09-11T18:36:19.970Z,95.30
2023-09-11T18:38:48.531Z,95.40
2023-09-11T18:41:17.859Z,95.40
2023-09-11T18:43:45.832Z,95.50
2023-09-11T18:46:14.013Z,95.60
2023-09-11T18:48:42.645Z,95.70
2023-09-11T18:51:11.045Z,95.80
2023-09-11T18:53:38.975Z,95.90
2023-09-11T18:56:06.915Z,96.00
2023-09-11T18:58:36.239Z,96.00
2023-09-11T19:01:04.225Z,96.10
2023-09-11T19:03:32.521Z,96.10
2023-09-11T19:06:00.581Z,96.10
2023-09-11T19:08:28.684Z,96.10
2023-09-11T19:10:56.788Z,96.00
2023-09-11T19:13:25.244Z,96.00
2023-09-11T19:15:54.623Z,96.00
2023-09-11T19:18:22.659Z,96.00
2023-09-11T19:20:50.725Z,96.00
2023-09-11T19:23:18.751Z,96.10
2023-09-11T19:25:46.880Z,96.20
2023-09-11T19:28:16.397Z,96.20
2023-09-11T19:30:44.491Z,96.30
2023-09-11T19:33:14.724Z,96.30
2023-09-11T19:35:42.733Z,96.30
2023-09-11T19:38:10.789Z,96.20
2023-09-11T19:40:38.722Z,96.30
2023-09-11T19:43:06.999Z,96.30
2023-09-11T19:45:35.048Z,96.30
2023-09-11T19:48:03.162Z,96.20
2023-09-11T19:50:32.834Z,96.20
2023-09-11T19:53:00.760Z,96.20
2023-09-11T19:55:28.689Z,96.10
2023-09-11T19:57:56.653Z,96.20
2023-09-11T20:00:24.823Z,96.20
2023-09-11T20:02:52.892Z,96.30
2023-09-11T20:05:21.139Z,96.30
2023-09-11T20:07:52.445Z,96.40
2023-09-11T20:10:20.585Z,96.50
2023-09-11T20:12:49.362Z,96.70
2023-09-11T20:15:18.638Z,96.60
2023-09-11T20:17:46.913Z,96.60
2023-09-11T20:20:14.857Z,96.60
2023-09-11T20:22:42.797Z,96.80
2023-09-11T20:25:13.070Z,97.00
2023-09-11T20:27:41.010Z,97.10
2023-09-11T20:30:09.945Z,97.20
2023-09-11T20:32:37.981Z,97.30
2023-09-11T20:35:06.436Z,97.30
2023-09-11T20:37:34.954Z,97.40
2023-09-11T20:40:03.295Z,97.50
2023-09-11T20:42:32.690Z,97.80
2023-09-11T20:44:59.644Z,97.70
2023-09-11T20:47:27.650Z,97.70
2023-09-11T20:49:55.609Z,97.70
2023-09-11T20:52:24.518Z,97.80
2023-09-11T20:54:52.882Z,97.80
2023-09-11T20:57:23.232Z,97.90
2023-09-11T20:59:52.512Z,97.90
2023-09-11T21:02:20.556Z,98.00
2023-09-11T21:04:50.826Z,98.10
2023-09-11T21:07:18.795Z,98.20
2023-09-11T21:09:46.841Z,98.30
2023-09-11T21:12:14.832Z,98.40
2023-09-11T21:14:42.833Z,98.40
2023-09-11T21:17:12.130Z,98.50
2023-09-11T21:19:40.105Z,98.50
2023-09-11T21:22:08.031Z,98.50
2023-09-11T21:24:35.995Z,98.60
2023-09-11T21:27:04.202Z,98.60
2023-09-11T21:29:32.219Z,98.60
2023-09-11T21:32:01.742Z,98.60
2023-09-11T21:34:31.174Z,98.70
2023-09-11T21:37:00.396Z,98.80
2023-09-11T21:39:28.645Z,98.90
2023-09-11T21:41:56.765Z,98.90
2023-09-11T21:44:24.878Z,98.90
2023-09-11T21:46:52.804Z,99.00
2023-09-11T21:49:20.882Z,99.20
2023-09-11T21:51:50.422Z,99.30
2023-09-11T21:54:18.431Z,99.40
2023-09-11T21:56:46.427Z,99.50
2023-09-11T21:59:14.421Z,99.60
2023-09-11T22:01:42.647Z,99.70
2023-09-11T22:04:10.690Z,99.70
2023-09-11T22:06:38.724Z,99.70
2023-09-11T22:09:08.220Z,99.70
2023-09-11T22:11:36.314Z,99.80
2023-09-11T22:14:04.812Z,99.80
2023-09-11T22:16:32.869Z,99.90
2023-09-11T22:19:00.949Z,99.90
2023-09-11T22:21:28.998Z,99.90
2023-09-11T22:23:58.764Z,99.90
2023-09-11T22:26:28.239Z,99.90
2023-09-11T22:28:56.294Z,99.90
2023-09-11T22:31:24.273Z,99.90
2023-09-11T22:33:52.364Z,99.90
2023-09-11T22:36:20.557Z,99.90
2023-09-11T22:38:48.595Z,99.90
2023-09-11T22:41:16.534Z,99.90
2023-09-11T22:43:45.809Z,99.90
2023-09-11T22:46:13.745Z,99.90
2023-09-11T22:48:41.869Z,99.90
2023-09-11T22:51:10.152Z,99.90
2023-09-11T22:53:38.164Z,99.90
2023-09-11T22:56:06.533Z,99.90
2023-09-11T22:58:34.439Z,99.90
2023-09-11T23:01:10.091Z,99.90
2023-09-11T23:03:45.739Z,99.90
2023-09-11T23:06:15.074Z,99.90
2023-09-11T23:08:43.532Z,99.90
2023-09-11T23:11:11.813Z,99.90
2023-09-11T23:13:39.792Z,99.90
2023-09-11T23:16:14.433Z,99.90
2023-09-11T23:18:42.544Z,99.90
2023-09-11T23:21:13.354Z,99.90
2023-09-11T23:23:45.090Z,99.90
2023-09-11T23:26:13.217Z,99.90
2023-09-11T23:28:41.373Z,99.90
2023-09-11T23:31:09.786Z,99.90
2023-09-11T23:33:39.279Z,99.90
2023-09-11T23:36:08.305Z,99.90
2023-09-11T23:38:37.893Z,99.90
2023-09-11T23:41:06.212Z,99.90
2023-09-11T23:43:34.965Z,99.90
2023-09-11T23:46:04.589Z,99.90
2023-09-11T23:48:32.785Z,99.90
2023-09-11T23:51:02.146Z,99.90
2023-09-11T23:53:30.646Z,99.90
2023-09-11T23:55:59.515Z,99.90
2023-09-11T23:58:27.740Z,99.90
